sensor_id;sensor_type;location;lat;lon;timestamp;pressure;altitude;pressure_sealevel;temperature;humidity
60055;BME280;45930;53.514;55.904;2023-02-28T00:00:56;48870.53;;;-149.77;100.00
60055;BME280;45930;53.514;55.904;2023-02-28T00:01:56;48854.69;;;-149.77;100.00
60055;BME280;45930;53.514;55.904;2023-02-28T00:02:57;48840.81;;;-149.77;100.00
60055;BME280;45930;53.514;55.904;2023-02-28T00:03:58;48842.78;;;-149.77;100.00
60055;BME280;45930;53.514;55.904;2023-02-28T00:04:59;48856.66;;;-149.77;100.00
60055;BME280;45930;53.514;55.904;2023-02-28T00:06:05;48890.31;;;-149.77;100.00
60055;BME280;45930;53.514;55.904;2023-02-28T00:07:06;48878.44;;;-149.77;100.00
60055;BME280;45930;53.514;55.904;2023-02-28T00:08:08;48860.63;;;-149.77;100.00
60055;BME280;45930;53.514;55.904;2023-02-28T00:09:09;48836.84;;;-149.77;100.00
60055;BME280;45930;53.514;55.904;2023-02-28T00:10:12;48862.59;;;-149.77;100.00
60055;BME280;45930;53.514;55.904;2023-02-28T00:11:14;48836.84;;;-149.77;100.00
60055;BME280;45930;53.514;55.904;2023-02-28T00:12:15;48854.69;;;-149.77;100.00
60055;BME280;45930;53.514;55.904;2023-02-28T00:13:16;48856.66;;;-149.77;100.00
60055;BME280;45930;53.514;55.904;2023-02-28T00:14:17;48828.94;;;-149.77;100.00
60055;BME280;45930;53.514;55.904;2023-02-28T00:15:18;48864.59;;;-149.77;100.00
60055;BME280;45930;53.514;55.904;2023-02-28T00:16:21;48858.63;;;-149.77;100.00
60055;BME280;45930;53.514;55.904;2023-02-28T00:17:22;48874.47;;;-149.77;100.00
60055;BME280;45930;53.514;55.904;2023-02-28T00:18:23;48874.47;;;-149.77;100.00
60055;BME280;45930;53.514;55.904;2023-02-28T00:19:23;48872.50;;;-149.77;100.00
60055;BME280;45930;53.514;55.904;2023-02-28T00:20:24;48860.63;;;-149.77;100.00
60055;BME280;45930;53.514;55.904;2023-02-28T00:21:25;48832.88;;;-149.77;100.00
60055;BME280;45930;53.514;55.904;2023-02-28T00:22:26;48848.72;;;-149.77;100.00
60055;BME280;45930;53.514;55.904;2023-02-28T00:23:28;48854.69;;;-149.77;100.00
60055;BME280;45930;53.514;55.904;2023-02-28T00:24:28;48864.59;;;-149.77;100.00
60055;BME280;45930;53.514;55.904;2023-02-28T00:25:29;48854.69;;;-149.77;100.00
60055;BME280;45930;53.514;55.904;2023-02-28T00:26:30;48874.47;;;-149.77;100.00
60055;BME280;45930;53.514;55.904;2023-02-28T00:27:30;48902.22;;;-149.77;100.00
60055;BME280;45930;53.514;55.904;2023-02-28T00:28:31;48846.75;;;-149.77;100.00
60055;BME280;45930;53.514;55.904;2023-02-28T00:29:32;48870.53;;;-149.77;100.00
60055;BME280;45930;53.514;55.904;2023-02-28T00:30:33;48842.78;;;-149.77;100.00
60055;BME280;45930;53.514;55.904;2023-02-28T00:31:33;48854.69;;;-149.77;100.00
60055;BME280;45930;53.514;55.904;2023-02-28T00:32:35;48848.72;;;-149.77;100.00
60055;BME280;45930;53.514;55.904;2023-02-28T00:33:36;48872.50;;;-149.77;100.00
60055;BME280;45930;53.514;55.904;2023-02-28T00:34:37;48856.66;;;-149.77;100.00
60055;BME280;45930;53.514;55.904;2023-02-28T00:35:38;48894.28;;;-149.77;100.00
60055;BME280;45930;53.514;55.904;2023-02-28T00:36:38;48860.63;;;-149.77;100.00
60055;BME280;45930;53.514;55.904;2023-02-28T00:37:41;48852.69;;;-149.77;100.00
60055;BME280;45930;53.514;55.904;2023-02-28T00:38:42;48854.69;;;-149.77;100.00
60055;BME280;45930;53.514;55.904;2023-02-28T00:39:43;48866.56;;;-149.77;100.00
60055;BME280;45930;53.514;55.904;2023-02-28T00:40:44;48882.41;;;-149.77;100.00
60055;BME280;45930;53.514;55.904;2023-02-28T00:41:44;48850.72;;;-149.77;100.00
60055;BME280;45930;53.514;55.904;2023-02-28T00:42:45;48840.81;;;-149.77;100.00
60055;BME280;45930;53.514;55.904;2023-02-28T00:43:46;48842.78;;;-149.77;100.00
60055;BME280;45930;53.514;55.904;2023-02-28T00:44:47;48906.16;;;-149.77;100.00
60055;BME280;45930;53.514;55.904;2023-02-28T00:45:48;48898.25;;;-149.77;100.00
60055;BME280;45930;53.514;55.904;2023-02-28T00:46:49;48866.56;;;-149.77;100.00
60055;BME280;45930;53.514;55.904;2023-02-28T00:47:49;48872.50;;;-149.77;100.00
60055;BME280;45930;53.514;55.904;2023-02-28T00:48:50;48846.75;;;-149.77;100.00
60055;BME280;45930;53.514;55.904;2023-02-28T00:49:51;48856.66;;;-149.77;100.00
60055;BME280;45930;53.514;55.904;2023-02-28T00:50:52;48886.38;;;-149.77;100.00
60055;BME280;45930;53.514;55.904;2023-02-28T00:51:54;48856.66;;;-149.77;100.00
60055;BME280;45930;53.514;55.904;2023-02-28T00:52:55;48852.69;;;-149.77;100.00
60055;BME280;45930;53.514;55.904;2023-02-28T00:53:55;48860.63;;;-149.77;100.00
60055;BME280;45930;53.514;55.904;2023-02-28T00:54:56;48892.31;;;-149.77;100.00
60055;BME280;45930;53.514;55.904;2023-02-28T00:55:57;48872.50;;;-149.77;100.00
60055;BME280;45930;53.514;55.904;2023-02-28T00:56:59;48884.38;;;-149.77;100.00
60055;BME280;45930;53.514;55.904;2023-02-28T00:58:00;48896.28;;;-149.77;100.00
60055;BME280;45930;53.514;55.904;2023-02-28T00:59:01;48880.44;;;-149.77;100.00
60055;BME280;45930;53.514;55.904;2023-02-28T01:00:02;48890.31;;;-149.77;100.00
60055;BME280;45930;53.514;55.904;2023-02-28T01:01:04;48878.44;;;-149.77;100.00
60055;BME280;45930;53.514;55.904;2023-02-28T01:02:04;48874.47;;;-149.77;100.00
60055;BME280;45930;53.514;55.904;2023-02-28T01:03:05;48880.44;;;-149.77;100.00
60055;BME280;45930;53.514;55.904;2023-02-28T01:04:06;48880.44;;;-149.77;100.00
60055;BME280;45930;53.514;55.904;2023-02-28T01:05:07;48882.41;;;-149.77;100.00
60055;BME280;45930;53.514;55.904;2023-02-28T01:06:08;48880.44;;;-149.77;100.00
60055;BME280;45930;53.514;55.904;2023-02-28T01:07:09;48876.47;;;-149.77;100.00
60055;BME280;45930;53.514;55.904;2023-02-28T01:08:10;48862.59;;;-149.77;100.00
60055;BME280;45930;53.514;55.904;2023-02-28T01:09:11;48890.31;;;-149.77;100.00
60055;BME280;45930;53.514;55.904;2023-02-28T01:10:12;48870.53;;;-149.77;100.00
60055;BME280;45930;53.514;55.904;2023-02-28T01:11:15;48878.44;;;-149.77;100.00
60055;BME280;45930;53.514;55.904;2023-02-28T01:12:16;48880.44;;;-149.77;100.00
60055;BME280;45930;53.514;55.904;2023-02-28T01:13:18;48866.56;;;-149.77;100.00
60055;BME280;45930;53.514;55.904;2023-02-28T01:14:19;48900.22;;;-149.77;100.00
60055;BME280;45930;53.514;55.904;2023-02-28T01:15:19;48856.66;;;-149.77;100.00
60055;BME280;45930;53.514;55.904;2023-02-28T01:16:20;48878.44;;;-149.77;100.00
60055;BME280;45930;53.514;55.904;2023-02-28T01:17:21;48886.38;;;-149.77;100.00
60055;BME280;45930;53.514;55.904;2023-02-28T01:18:22;48862.59;;;-149.77;100.00
60055;BME280;45930;53.514;55.904;2023-02-28T01:19:24;48880.44;;;-149.77;100.00
60055;BME280;45930;53.514;55.904;2023-02-28T01:20:25;48894.28;;;-149.77;100.00
60055;BME280;45930;53.514;55.904;2023-02-28T01:21:26;48890.31;;;-149.77;100.00
60055;BME280;45930;53.514;55.904;2023-02-28T01:22:27;48918.06;;;-149.77;100.00
60055;BME280;45930;53.514;55.904;2023-02-28T01:23:28;48866.56;;;-149.77;100.00
60055;BME280;45930;53.514;55.904;2023-02-28T01:24:29;48896.28;;;-149.77;100.00
60055;BME280;45930;53.514;55.904;2023-02-28T01:25:30;48892.31;;;-149.77;100.00
60055;BME280;45930;53.514;55.904;2023-02-28T01:26:34;48900.22;;;-149.77;100.00
60055;BME280;45930;53.514;55.904;2023-02-28T01:27:34;48878.44;;;-149.77;100.00
60055;BME280;45930;53.514;55.904;2023-02-28T01:28:36;48906.16;;;-149.77;100.00
60055;BME280;45930;53.514;55.904;2023-02-28T01:29:37;48876.47;;;-149.77;100.00
60055;BME280;45930;53.514;55.904;2023-02-28T01:30:38;48878.44;;;-149.77;100.00
60055;BME280;45930;53.514;55.904;2023-02-28T01:31:39;48900.22;;;-149.77;100.00
60055;BME280;45930;53.514;55.904;2023-02-28T01:32:39;48900.22;;;-149.77;100.00
60055;BME280;45930;53.514;55.904;2023-02-28T01:33:41;48933.91;;;-149.77;100.00
60055;BME280;45930;53.514;55.904;2023-02-28T01:34:42;48906.16;;;-149.77;100.00
60055;BME280;45930;53.514;55.904;2023-02-28T01:35:42;48902.22;;;-149.77;100.00
60055;BME280;45930;53.514;55.904;2023-02-28T01:36:43;48910.13;;;-149.77;100.00
60055;BME280;45930;53.514;55.904;2023-02-28T01:37:44;48925.97;;;-149.77;100.00
60055;BME280;45930;53.514;55.904;2023-02-28T01:38:46;48925.97;;;-149.77;100.00
60055;BME280;45930;53.514;55.904;2023-02-28T01:39:46;48916.06;;;-149.77;100.00
60055;BME280;45930;53.514;55.904;2023-02-28T01:40:48;48927.97;;;-149.77;100.00
60055;BME280;45930;53.514;55.904;2023-02-28T01:41:48;48910.13;;;-149.77;100.00
60055;BME280;45930;53.514;55.904;2023-02-28T01:42:49;48931.91;;;-149.77;100.00
60055;BME280;45930;53.514;55.904;2023-02-28T01:44:04;48918.06;;;-149.77;100.00
60055;BME280;45930;53.514;55.904;2023-02-28T01:45:27;48925.97;;;-149.77;100.00
60055;BME280;45930;53.514;55.904;2023-02-28T01:46:30;48916.06;;;-149.77;100.00
60055;BME280;45930;53.514;55.904;2023-02-28T01:47:35;48894.28;;;-149.77;100.00
60055;BME280;45930;53.514;55.904;2023-02-28T01:48:40;48925.97;;;-149.77;100.00
60055;BME280;45930;53.514;55.904;2023-02-28T01:49:45;48920.03;;;-149.77;100.00
60055;BME280;45930;53.514;55.904;2023-02-28T01:50:47;48953.72;;;-149.77;100.00
60055;BME280;45930;53.514;55.904;2023-02-28T01:51:52;48955.69;;;-149.77;100.00
60055;BME280;45930;53.514;55.904;2023-02-28T01:52:57;48937.88;;;-149.77;100.00
60055;BME280;45930;53.514;55.904;2023-02-28T01:54:06;48949.75;;;-149.77;100.00
60055;BME280;45930;53.514;55.904;2023-02-28T01:55:14;48963.63;;;-149.77;100.00
60055;BME280;45930;53.514;55.904;2023-02-28T01:56:21;48971.53;;;-149.77;100.00
60055;BME280;45930;53.514;55.904;2023-02-28T01:57:27;48953.72;;;-149.77;100.00
60055;BME280;45930;53.514;55.904;2023-02-28T01:58:30;48941.81;;;-149.77;100.00
60055;BME280;45930;53.514;55.904;2023-02-28T01:59:44;48925.97;;;-149.77;100.00
60055;BME280;45930;53.514;55.904;2023-02-28T02:00:46;48949.75;;;-149.77;100.00
60055;BME280;45930;53.514;55.904;2023-02-28T02:01:48;48947.75;;;-149.77;100.00
60055;BME280;45930;53.514;55.904;2023-02-28T02:02:51;48975.50;;;-149.77;100.00
60055;BME280;45930;53.514;55.904;2023-02-28T02:03:56;48973.50;;;-149.77;100.00
60055;BME280;45930;53.514;55.904;2023-02-28T02:05:05;48969.56;;;-149.77;100.00
60055;BME280;45930;53.514;55.904;2023-02-28T02:06:06;49001.25;;;-149.77;100.00
60055;BME280;45930;53.514;55.904;2023-02-28T02:07:07;48959.66;;;-149.77;100.00
60055;BME280;45930;53.514;55.904;2023-02-28T02:08:11;48975.50;;;-149.77;100.00
60055;BME280;45930;53.514;55.904;2023-02-28T02:09:13;48991.34;;;-149.77;100.00
60055;BME280;45930;53.514;55.904;2023-02-28T02:10:18;48991.34;;;-149.77;100.00
60055;BME280;45930;53.514;55.904;2023-02-28T02:11:22;48957.66;;;-149.77;100.00
60055;BME280;45930;53.514;55.904;2023-02-28T02:17:56;49007.19;;;-149.77;100.00
60055;BME280;45930;53.514;55.904;2023-02-28T02:19:02;49015.09;;;-149.77;100.00
60055;BME280;45930;53.514;55.904;2023-02-28T02:26:47;49025.00;;;-149.77;100.00
60055;BME280;45930;53.514;55.904;2023-02-28T02:29:00;48989.34;;;-149.77;100.00
60055;BME280;45930;53.514;55.904;2023-02-28T02:31:39;48959.66;;;-149.77;100.00
60055;BME280;45930;53.514;55.904;2023-02-28T02:34:20;48981.44;;;-149.77;100.00
60055;BME280;45930;53.514;55.904;2023-02-28T02:40:59;48991.34;;;-149.77;100.00
60055;BME280;45930;53.514;55.904;2023-02-28T02:42:08;48953.72;;;-149.77;100.00
60055;BME280;45930;53.514;55.904;2023-02-28T02:43:16;48977.47;;;-149.77;100.00
60055;BME280;45930;53.514;55.904;2023-02-28T02:45:41;49003.22;;;-149.77;100.00
60055;BME280;45930;53.514;55.904;2023-02-28T02:46:46;49036.91;;;-149.77;100.00
60055;BME280;45930;53.514;55.904;2023-02-28T02:47:48;49015.09;;;-149.77;100.00
60055;BME280;45930;53.514;55.904;2023-02-28T02:48:51;49011.16;;;-149.77;100.00
60055;BME280;45930;53.514;55.904;2023-02-28T02:49:57;48999.25;;;-149.77;100.00
60055;BME280;45930;53.514;55.904;2023-02-28T02:51:04;49034.91;;;-149.77;100.00
60055;BME280;45930;53.514;55.904;2023-02-28T02:52:14;49001.25;;;-149.77;100.00
60055;BME280;45930;53.514;55.904;2023-02-28T02:53:18;49013.13;;;-149.77;100.00
60055;BME280;45930;53.514;55.904;2023-02-28T02:54:28;48993.31;;;-149.77;100.00
60055;BME280;45930;53.514;55.904;2023-02-28T02:55:31;48995.31;;;-149.77;100.00
60055;BME280;45930;53.514;55.904;2023-02-28T02:56:34;48989.34;;;-149.77;100.00
60055;BME280;45930;53.514;55.904;2023-02-28T02:58:03;49001.25;;;-149.77;100.00
60055;BME280;45930;53.514;55.904;2023-02-28T02:59:08;49005.19;;;-149.77;100.00
60055;BME280;45930;53.514;55.904;2023-02-28T03:00:10;48981.44;;;-149.77;100.00
60055;BME280;45930;53.514;55.904;2023-02-28T03:01:17;48985.41;;;-149.77;100.00
60055;BME280;45930;53.514;55.904;2023-02-28T03:02:28;48985.41;;;-149.77;100.00
60055;BME280;45930;53.514;55.904;2023-02-28T03:03:35;48969.56;;;-149.77;100.00
60055;BME280;45930;53.514;55.904;2023-02-28T03:04:46;48981.44;;;-149.77;100.00
60055;BME280;45930;53.514;55.904;2023-02-28T03:05:50;48973.50;;;-149.77;100.00
60055;BME280;45930;53.514;55.904;2023-02-28T03:06:52;48997.28;;;-149.77;100.00
60055;BME280;45930;53.514;55.904;2023-02-28T03:07:55;49007.19;;;-149.77;100.00
60055;BME280;45930;53.514;55.904;2023-02-28T03:08:56;49011.16;;;-149.77;100.00
60055;BME280;45930;53.514;55.904;2023-02-28T03:09:57;49032.94;;;-149.77;100.00
60055;BME280;45930;53.514;55.904;2023-02-28T03:11:00;49017.09;;;-149.77;100.00
60055;BME280;45930;53.514;55.904;2023-02-28T03:12:02;49027.00;;;-149.77;100.00
60055;BME280;45930;53.514;55.904;2023-02-28T03:13:14;49023.03;;;-149.77;100.00
60055;BME280;45930;53.514;55.904;2023-02-28T03:18:43;49092.34;;;-149.77;99.78
60055;BME280;45930;53.514;55.904;2023-02-28T03:21:16;49088.41;;;-149.77;99.05
60055;BME280;45930;53.514;55.904;2023-02-28T03:24:56;49060.66;;;-149.77;98.30
60055;BME280;45930;53.514;55.904;2023-02-28T03:26:14;49076.50;;;-149.77;96.83
60055;BME280;45930;53.514;55.904;2023-02-28T03:28:19;49088.41;;;-149.77;93.71
60055;BME280;45930;53.514;55.904;2023-02-28T03:29:13;49080.47;;;-149.77;94.83
60055;BME280;45930;53.514;55.904;2023-02-28T03:30:41;49137.91;;;-149.77;91.08
60055;BME280;45930;53.514;55.904;2023-02-28T03:31:57;49145.84;;;-149.77;91.64
60055;BME280;45930;53.514;55.904;2023-02-28T03:33:12;49130.00;;;-149.77;90.65
60055;BME280;45930;53.514;55.904;2023-02-28T03:34:24;49122.06;;;-149.77;90.38
60055;BME280;45930;53.514;55.904;2023-02-28T03:35:31;49167.63;;;-149.77;87.56
60055;BME280;45930;53.514;55.904;2023-02-28T03:36:39;49143.84;;;-149.77;87.11
60055;BME280;45930;53.514;55.904;2023-02-28T03:37:45;49133.94;;;-149.77;85.56
60055;BME280;45930;53.514;55.904;2023-02-28T03:39:07;49157.72;;;-149.77;84.22
60055;BME280;45930;53.514;55.904;2023-02-28T03:40:22;49179.50;;;-149.77;81.56
60055;BME280;45930;53.514;55.904;2023-02-28T03:41:27;49175.53;;;-149.77;80.62
60055;BME280;45930;53.514;55.904;2023-02-28T03:42:35;49167.63;;;-149.77;78.43
60055;BME280;45930;53.514;55.904;2023-02-28T03:43:39;49185.44;;;-149.77;78.32
60055;BME280;45930;53.514;55.904;2023-02-28T03:44:44;49211.19;;;-149.77;78.93
60055;BME280;45930;53.514;55.904;2023-02-28T03:45:48;49209.22;;;-149.77;77.57
60055;BME280;45930;53.514;55.904;2023-02-28T03:47:16;49219.13;;;-149.77;75.64
60055;BME280;45930;53.514;55.904;2023-02-28T03:48:31;49211.19;;;-149.77;77.64
60055;BME280;45930;53.514;55.904;2023-02-28T03:49:40;49211.19;;;-149.77;76.75
60055;BME280;45930;53.514;55.904;2023-02-28T03:50:46;49234.97;;;-149.77;77.54
60055;BME280;45930;53.514;55.904;2023-02-28T03:51:49;49203.28;;;-149.77;77.02
60055;BME280;45930;53.514;55.904;2023-02-28T03:53:14;49207.25;;;-149.77;76.05
60055;BME280;45930;53.514;55.904;2023-02-28T03:54:25;49229.03;;;-149.77;76.83
60055;BME280;45930;53.514;55.904;2023-02-28T03:55:32;49215.16;;;-149.77;75.63
60055;BME280;45930;53.514;55.904;2023-02-28T03:56:39;49203.28;;;-149.77;76.09
60055;BME280;45930;53.514;55.904;2023-02-28T03:58:01;49219.13;;;-149.77;74.05
60055;BME280;45930;53.514;55.904;2023-02-28T04:00:40;49254.78;;;-149.77;72.20
60055;BME280;45930;53.514;55.904;2023-02-28T04:01:47;49248.84;;;-149.77;73.34
60055;BME280;45930;53.514;55.904;2023-02-28T04:02:49;49250.81;;;-149.77;71.70
60055;BME280;45930;53.514;55.904;2023-02-28T04:03:53;49256.75;;;-149.77;71.73
60055;BME280;45930;53.514;55.904;2023-02-28T04:04:54;49254.78;;;-149.77;70.67
60055;BME280;45930;53.514;55.904;2023-02-28T04:05:55;49231.00;;;-149.77;70.69
60055;BME280;45930;53.514;55.904;2023-02-28T04:07:16;49244.88;;;-149.77;70.28
60055;BME280;45930;53.514;55.904;2023-02-28T04:08:17;49266.66;;;-149.77;70.29
60055;BME280;45930;53.514;55.904;2023-02-28T04:09:18;49274.59;;;-149.77;70.64
60055;BME280;45930;53.514;55.904;2023-02-28T04:10:19;49258.75;;;-149.77;71.47
60055;BME280;45930;53.514;55.904;2023-02-28T04:11:33;49270.63;;;-149.77;72.35
60055;BME280;45930;53.514;55.904;2023-02-28T04:12:35;49282.50;;;-149.77;72.66
60055;BME280;45930;53.514;55.904;2023-02-28T04:13:36;49268.63;;;-149.77;72.47
60055;BME280;45930;53.514;55.904;2023-02-28T04:14:37;49270.63;;;-149.77;71.37
60055;BME280;45930;53.514;55.904;2023-02-28T04:15:37;49270.63;;;-149.77;71.82
60055;BME280;45930;53.514;55.904;2023-02-28T04:16:40;49304.28;;;-149.77;72.35
60055;BME280;45930;53.514;55.904;2023-02-28T04:17:41;49268.63;;;-149.77;71.99
60055;BME280;45930;53.514;55.904;2023-02-28T04:18:42;49252.78;;;-149.77;72.03
60055;BME280;45930;53.514;55.904;2023-02-28T04:19:46;49258.75;;;-149.77;70.42
60055;BME280;45930;53.514;55.904;2023-02-28T04:20:47;49282.50;;;-149.77;67.81
60055;BME280;45930;53.514;55.904;2023-02-28T04:21:52;49288.44;;;-149.77;68.22
60055;BME280;45930;53.514;55.904;2023-02-28T04:22:53;49302.31;;;-149.77;66.11
60055;BME280;45930;53.514;55.904;2023-02-28T04:23:54;49288.44;;;-149.77;67.27
60055;BME280;45930;53.514;55.904;2023-02-28T04:24:55;49294.41;;;-149.77;67.05
60055;BME280;45930;53.514;55.904;2023-02-28T04:25:56;49290.44;;;-149.77;67.65
60055;BME280;45930;53.514;55.904;2023-02-28T04:26:58;49306.28;;;-149.77;68.75
60055;BME280;45930;53.514;55.904;2023-02-28T04:27:58;49296.38;;;-149.77;66.94
60055;BME280;45930;53.514;55.904;2023-02-28T04:29:00;49294.41;;;-149.77;67.06
60055;BME280;45930;53.514;55.904;2023-02-28T04:30:02;49310.25;;;-149.77;67.65
60055;BME280;45930;53.514;55.904;2023-02-28T04:31:05;49274.59;;;-149.77;67.65
60055;BME280;45930;53.514;55.904;2023-02-28T04:32:06;49282.50;;;-149.77;67.22
60055;BME280;45930;53.514;55.904;2023-02-28T04:33:06;49310.25;;;-149.77;67.30
60055;BME280;45930;53.514;55.904;2023-02-28T04:34:07;49322.13;;;-149.77;67.85
60055;BME280;45930;53.514;55.904;2023-02-28T04:35:08;49300.34;;;-149.77;68.09
60055;BME280;45930;53.514;55.904;2023-02-28T04:36:09;49298.34;;;-149.77;67.54
60055;BME280;45930;53.514;55.904;2023-02-28T04:37:10;49288.44;;;-149.77;66.77
60055;BME280;45930;53.514;55.904;2023-02-28T04:38:10;49316.19;;;-149.77;67.81
60055;BME280;45930;53.514;55.904;2023-02-28T04:39:11;49328.06;;;-149.77;66.91
60055;BME280;45930;53.514;55.904;2023-02-28T04:40:12;49298.34;;;-149.77;65.56
60055;BME280;45930;53.514;55.904;2023-02-28T04:41:13;49290.44;;;-149.77;65.48
60055;BME280;45930;53.514;55.904;2023-02-28T04:42:14;49282.50;;;-149.77;66.16
60055;BME280;45930;53.514;55.904;2023-02-28T04:43:15;49300.34;;;-149.77;65.61
60055;BME280;45930;53.514;55.904;2023-02-28T04:44:16;49314.19;;;-149.77;65.96
60055;BME280;45930;53.514;55.904;2023-02-28T04:45:17;49278.53;;;-149.77;65.79
60055;BME280;45930;53.514;55.904;2023-02-28T04:46:19;49306.28;;;-149.77;65.31
60055;BME280;45930;53.514;55.904;2023-02-28T04:47:20;49320.16;;;-149.77;65.75
60055;BME280;45930;53.514;55.904;2023-02-28T04:48:21;49343.91;;;-149.77;65.54
60055;BME280;45930;53.514;55.904;2023-02-28T04:49:22;49300.34;;;-149.77;65.08
60055;BME280;45930;53.514;55.904;2023-02-28T04:50:22;49326.09;;;-149.77;64.94
60055;BME280;45930;53.514;55.904;2023-02-28T04:51:23;49322.13;;;-149.77;65.96
60055;BME280;45930;53.514;55.904;2023-02-28T04:52:24;49310.25;;;-149.77;66.46
60055;BME280;45930;53.514;55.904;2023-02-28T04:53:25;49316.19;;;-149.77;66.40
60055;BME280;45930;53.514;55.904;2023-02-28T04:54:25;49337.97;;;-149.77;65.76
60055;BME280;45930;53.514;55.904;2023-02-28T04:55:26;49314.19;;;-149.77;65.42
60055;BME280;45930;53.514;55.904;2023-02-28T04:56:27;49300.34;;;-149.77;65.10
60055;BME280;45930;53.514;55.904;2023-02-28T04:57:28;49314.19;;;-149.77;65.44
60055;BME280;45930;53.514;55.904;2023-02-28T04:58:28;49328.06;;;-149.77;64.75
60055;BME280;45930;53.514;55.904;2023-02-28T04:59:30;49326.09;;;-149.77;65.06
60055;BME280;45930;53.514;55.904;2023-02-28T05:00:31;49306.28;;;-149.77;63.41
60055;BME280;45930;53.514;55.904;2023-02-28T05:01:33;49341.94;;;-149.77;62.45
60055;BME280;45930;53.514;55.904;2023-02-28T05:02:35;49314.19;;;-149.77;60.30
60055;BME280;45930;53.514;55.904;2023-02-28T05:03:35;49318.16;;;-149.77;59.67
60055;BME280;45930;53.514;55.904;2023-02-28T05:04:36;49316.19;;;-149.77;58.69
60055;BME280;45930;53.514;55.904;2023-02-28T05:05:37;49334.00;;;-149.77;59.24
60055;BME280;45930;53.514;55.904;2023-02-28T05:06:38;49328.06;;;-149.77;59.39
60055;BME280;45930;53.514;55.904;2023-02-28T05:07:39;49306.28;;;-149.77;58.67
60055;BME280;45930;53.514;55.904;2023-02-28T05:08:40;49345.91;;;-149.77;56.94
60055;BME280;45930;53.514;55.904;2023-02-28T05:09:41;49337.97;;;-149.77;56.95
60055;BME280;45930;53.514;55.904;2023-02-28T05:10:42;49336.00;;;-149.77;56.19
60055;BME280;45930;53.514;55.904;2023-02-28T05:11:43;49326.09;;;-149.77;56.16
60055;BME280;45930;53.514;55.904;2023-02-28T05:12:45;49369.66;;;-149.77;55.85
60055;BME280;45930;53.514;55.904;2023-02-28T05:13:46;49349.84;;;-149.77;55.62
60055;BME280;45930;53.514;55.904;2023-02-28T05:14:47;49341.94;;;-149.77;55.23
60055;BME280;45930;53.514;55.904;2023-02-28T05:15:47;49387.50;;;-149.77;55.08
60055;BME280;45930;53.514;55.904;2023-02-28T05:16:48;49361.75;;;-149.77;54.89
60055;BME280;45930;53.514;55.904;2023-02-28T05:17:49;49373.63;;;-149.77;54.71
60055;BME280;45930;53.514;55.904;2023-02-28T05:18:50;49351.84;;;-149.77;54.36
60055;BME280;45930;53.514;55.904;2023-02-28T05:19:50;49367.69;;;-149.77;54.37
60055;BME280;45930;53.514;55.904;2023-02-28T05:20:51;49363.72;;;-149.77;54.54
60055;BME280;45930;53.514;55.904;2023-02-28T05:21:54;49359.75;;;-149.77;54.64
60055;BME280;45930;53.514;55.904;2023-02-28T05:22:56;49381.56;;;-149.77;54.93
60055;BME280;45930;53.514;55.904;2023-02-28T05:24:00;49365.69;;;-149.77;54.90
60055;BME280;45930;53.514;55.904;2023-02-28T05:25:01;49375.59;;;-149.77;54.84
60055;BME280;45930;53.514;55.904;2023-02-28T05:26:04;49365.69;;;-149.77;54.96
60055;BME280;45930;53.514;55.904;2023-02-28T05:27:04;49343.91;;;-149.77;54.55
60055;BME280;45930;53.514;55.904;2023-02-28T05:28:06;49365.69;;;-149.77;54.56
60055;BME280;45930;53.514;55.904;2023-02-28T05:29:07;49357.78;;;-149.77;54.61
60055;BME280;45930;53.514;55.904;2023-02-28T05:30:09;49375.59;;;-149.77;54.68
60055;BME280;45930;53.514;55.904;2023-02-28T05:31:13;49361.75;;;-149.77;54.63
60055;BME280;45930;53.514;55.904;2023-02-28T05:32:14;49373.63;;;-149.77;54.28
60055;BME280;45930;53.514;55.904;2023-02-28T05:33:15;49361.75;;;-149.77;53.74
60055;BME280;45930;53.514;55.904;2023-02-28T05:34:16;49365.69;;;-149.77;53.82
60055;BME280;45930;53.514;55.904;2023-02-28T05:35:17;49367.69;;;-149.77;53.52
60055;BME280;45930;53.514;55.904;2023-02-28T05:36:19;49377.59;;;-149.77;53.44
60055;BME280;45930;53.514;55.904;2023-02-28T05:37:20;49365.69;;;-149.77;53.99
60055;BME280;45930;53.514;55.904;2023-02-28T05:38:21;49375.59;;;-149.77;53.18
60055;BME280;45930;53.514;55.904;2023-02-28T05:39:22;49377.59;;;-149.77;53.67
60055;BME280;45930;53.514;55.904;2023-02-28T05:40:23;49387.50;;;-149.77;53.05
60055;BME280;45930;53.514;55.904;2023-02-28T05:41:23;49373.63;;;-149.77;52.92
60055;BME280;45930;53.514;55.904;2023-02-28T05:42:24;49379.56;;;-149.77;52.82
60055;BME280;45930;53.514;55.904;2023-02-28T05:43:25;49361.75;;;-149.77;53.12
60055;BME280;45930;53.514;55.904;2023-02-28T05:44:26;49361.75;;;-149.77;52.04
60055;BME280;45930;53.514;55.904;2023-02-28T05:45:26;49361.75;;;-149.77;52.44
60055;BME280;45930;53.514;55.904;2023-02-28T05:46:27;49361.75;;;-149.77;52.70
60055;BME280;45930;53.514;55.904;2023-02-28T05:47:28;49359.75;;;-149.77;52.54
60055;BME280;45930;53.514;55.904;2023-02-28T05:48:29;49339.94;;;-149.77;52.45
60055;BME280;45930;53.514;55.904;2023-02-28T05:49:29;49343.91;;;-149.77;51.68
60055;BME280;45930;53.514;55.904;2023-02-28T05:50:30;49347.88;;;-149.77;51.38
60055;BME280;45930;53.514;55.904;2023-02-28T05:51:31;49369.66;;;-149.77;51.41
60055;BME280;45930;53.514;55.904;2023-02-28T05:52:32;49383.53;;;-149.77;51.89
60055;BME280;45930;53.514;55.904;2023-02-28T05:53:33;49375.59;;;-149.77;52.05
60055;BME280;45930;53.514;55.904;2023-02-28T05:54:34;49419.19;;;-149.77;51.94